Clearmont, WY (82835)

6:50 PM MDT on September 30, 2014 (GMT -0600)
Merlin Ranch | Change Station
CLOSE
Current Station
Personal Weather Station
Location: Buffalo, WY
Elevation: 4364 ft
Nearby Weather Stations

Elev 4364 ft 44.42 °N, 106.59 °W | Updated 2 minutes ago

Mostly Cloudy
Mostly Cloudy
55.6 °F
Feels Like 55.6 °F
N
4.0
Wind Variable Wind from NW
Gusts 11.0 mph

Today
High -- | Low -- °F
--% Chance of Precip.
Yesterday
High -- | Low -- °F
Precip. -- in
7:02 AM 6:48 PM
Waxing Crescent, 41% visible
Pressure 29.64 in
Visibility 10.0 miles
Clouds Few 7000 ft
Dew Point 44 °F
Humidity 66%
Rainfall 0.00 in
Snow Depth 0 in , 0 in , 1 in
UV 0.0 out of 12
Pollen 2.70 out of 12
Air Quality Not available.
Flu Activity Not available.
METAR KBYG 302353Z AUTO 35010KT 10SM FEW070 12/06 A2973 RMK AO2 SLP037 60000 T01220056 10161 20122 53008

More Conditions Fewer Conditions

Pressure 29.64 in
Visibility 10.0 miles
Clouds Few 7000 ft
Dew Point 44 °F
Humidity 66%
Rainfall 0.00 in
Snow Depth 0 in , 0 in , 1 in
UV 0.0 out of 12
Pollen 2.70 out of 12
Air Quality Not available.
Flu Activity Not available.
METAR KBYG 302353Z AUTO 35010KT 10SM FEW070 12/06 A2973 RMK AO2 SLP037 60000 T01220056 10161 20122 53008

More Conditions Fewer Conditions

10-Day Weather Forecast

Almanac

Astronomy

Sep. 30, 2014 Rise Set
Actual Time 7:02 AM MDT 6:48 PM MDT
Civil Twilight 6:33 AM MDT 7:17 PM MDT
Nautical Twilight 5:59 AM MDT 7:50 PM MDT
Astronomical Twilight 5:25 AM MDT 8:25 PM MDT
Moon 1:24 PM MDT (9/30) 11:10 PM MDT (9/30)
Length of Visible Light 12h 43m
Length of Day
11h 45m
Tomorrow will be 3m 5s shorter.
Waxing Crescent, 41% of the Moon is Illuminated
Today
Waxing Crescent
Oct 1
First Quarter
Oct 8
Full
Oct 15
Last Quarter
Oct 23
New

Today's Extremes

State Highs State Lows

Community

WunderPhotos

Upload Photos

1,757,801 photos uploaded!

Nearby

Snow Depth

Station Depth Elevation
Dome Lake 0 in 8880 ft
Blackwater 0 in 9780 ft
Lewis Lake Divide 1 in 7850 ft
Bear Trap Meadow 0 in 8200 ft
Evening Star 1 in 9200 ft

Earthquake Activity

City Distance Mag. Time & Date
No recent earthquake activity has been reported nearby.
Minimum magnitude displayed is 2.5.

Coastal Water Temperatures

Place Temperature
No Stations Reporting

Nearby Weather Stations